createdAt,value
2017-08-17T18:51:28.656Z,1011.5
2017-08-17T18:52:38.906Z,1011.43
2017-08-17T18:53:49.159Z,1011.45
2017-08-17T18:54:59.383Z,1011.45
2017-08-17T18:56:09.299Z,1011.43
2017-08-17T18:57:18.935Z,1011.4
2017-08-17T18:58:28.239Z,1011.46
2017-08-17T18:59:38.171Z,1011.5
2017-08-17T19:00:48.087Z,1011.52
2017-08-17T19:01:57.715Z,1011.51
2017-08-17T19:03:08.041Z,1011.54
2017-08-17T19:04:17.956Z,1011.59
2017-08-17T19:05:27.749Z,1011.58
2017-08-17T19:06:37.985Z,1011.6
2017-08-17T19:07:48.198Z,1011.63
2017-08-17T19:08:57.522Z,1011.65
2017-08-17T19:10:07.457Z,1011.67
2017-08-17T19:11:17.382Z,1011.68
2017-08-17T19:12:26.998Z,1011.66
2017-08-17T19:13:37.235Z,1011.67
2017-08-17T19:14:47.149Z,1011.66
2017-08-17T19:15:57.097Z,1011.63
2017-08-17T19:17:07.198Z,1011.61
2017-08-17T19:18:17.274Z,1011.61
2017-08-17T19:19:26.586Z,1011.61
2017-08-17T19:20:36.816Z,1011.6
2017-08-17T19:21:46.747Z,1011.55
2017-08-17T19:22:56.366Z,1011.61
2017-08-17T19:24:05.673Z,1011.56
2017-08-17T19:25:15.589Z,1011.56
2017-08-17T19:26:24.903Z,1011.52
2017-08-17T19:27:35.139Z,1011.53
2017-08-17T19:28:45.067Z,1011.53
2017-08-17T19:29:54.981Z,1011.48
2017-08-17T19:31:05.203Z,1011.49
2017-08-17T19:32:15.580Z,1011.51
2017-08-17T19:33:25.812Z,1011.49
2017-08-17T19:34:35.764Z,1011.51
2017-08-17T19:35:45.667Z,1011.52
2017-08-17T19:36:55.573Z,1011.53
2017-08-17T19:38:05.650Z,1011.51
2017-08-17T19:39:15.271Z,1011.51
2017-08-17T19:40:25.194Z,1011.48
2017-08-17T19:41:35.113Z,1011.46
2017-08-17T19:42:45.032Z,1011.45
2017-08-17T19:43:55.357Z,1011.43
2017-08-17T19:45:04.665Z,1011.39
2017-08-17T19:46:14.591Z,1011.41
2017-08-17T19:47:24.815Z,1011.4
2017-08-17T19:48:34.758Z,1011.37
2017-08-17T19:49:44.384Z,1011.47
2017-08-17T19:50:54.304Z,1011.48
2017-08-17T19:52:04.223Z,1011.5
2017-08-17T19:53:13.577Z,1011.5
2017-08-17T19:54:23.547Z,1011.51
2017-08-17T19:55:33.595Z,1011.52
2017-08-17T19:56:43.517Z,1011.48
2017-08-17T19:57:53.491Z,1011.51
2017-08-17T19:59:03.720Z,1011.47
2017-08-17T20:00:13.647Z,1011.45
2017-08-17T20:01:23.872Z,1011.49
2017-08-17T20:02:34.102Z,1011.53
2017-08-17T20:03:44.045Z,1011.56
2017-08-17T20:04:53.962Z,1011.56
2017-08-17T20:06:04.197Z,1011.54
2017-08-17T20:07:13.807Z,1011.53
2017-08-17T20:08:23.732Z,1011.52
2017-08-17T20:09:33.338Z,1011.51
2017-08-17T20:10:42.972Z,1011.52
2017-08-17T20:11:53.192Z,1011.52
2017-08-17T20:13:02.912Z,1011.55
2017-08-17T20:14:12.527Z,1011.53
2017-08-17T20:15:21.868Z,1011.5
2017-08-17T20:16:32.180Z,1011.52
2017-08-17T20:17:42.464Z,1011.49
2017-08-17T20:18:52.460Z,1011.54
2017-08-17T20:20:02.093Z,1011.49
2017-08-17T20:21:12.072Z,1011.49
2017-08-17T20:22:22.318Z,1011.5
2017-08-17T20:23:31.939Z,1011.48
2017-08-17T20:24:41.958Z,1011.48
2017-08-17T20:25:51.905Z,1011.45
2017-08-17T20:27:01.818Z,1011.4
2017-08-17T20:28:11.438Z,1011.39
2017-08-17T20:29:21.057Z,1011.42
2017-08-17T20:30:31.277Z,1011.43
2017-08-17T20:31:40.605Z,1011.49
2017-08-17T20:32:50.227Z,1011.46
2017-08-17T20:33:59.549Z,1011.43
2017-08-17T20:35:09.490Z,1011.4
2017-08-17T20:36:19.438Z,1011.43
2017-08-17T20:37:29.409Z,1011.43
2017-08-17T20:38:39.037Z,1011.41
2017-08-17T20:39:48.678Z,1011.43
2017-08-17T20:40:58.604Z,1011.41
2017-08-17T20:42:08.273Z,1011.41
2017-08-17T20:43:18.208Z,1011.4
2017-08-17T20:44:28.194Z,1011.35
2017-08-17T20:45:38.131Z,1011.3
2017-08-17T20:46:48.383Z,1011.3
2017-08-17T20:47:58.970Z,1011.31
2017-08-17T20:49:08.605Z,1011.31
2017-08-17T20:50:18.873Z,1011.28
2017-08-17T20:51:29.098Z,1011.27
2017-08-17T20:52:38.725Z,1011.28
2017-08-17T20:53:49.025Z,1011.24
2017-08-17T20:54:58.971Z,1011.27
2017-08-17T20:56:08.586Z,1011.2
2017-08-17T20:57:18.236Z,1011.19
2017-08-17T20:58:28.503Z,1011.18
2017-08-17T20:59:38.422Z,1011.21
2017-08-17T21:00:48.373Z,1011.18
2017-08-17T21:01:58.615Z,1011.19
2017-08-17T21:03:08.537Z,1011.18
2017-08-17T21:04:18.463Z,1011.16
2017-08-17T21:05:28.539Z,1011.19
2017-08-17T21:06:38.458Z,1011.18
2017-08-17T21:07:48.080Z,1011.2
2017-08-17T21:08:57.691Z,1011.19
2017-08-17T21:10:07.634Z,1011.11
2017-08-17T21:11:17.943Z,1011.09
2017-08-17T21:12:27.908Z,1011.11
2017-08-17T21:13:37.518Z,1011.08
2017-08-17T21:14:47.133Z,1011.04
2017-08-17T21:15:57.098Z,1011.04
2017-08-17T21:17:06.877Z,1011.03
2017-08-17T21:18:16.188Z,1011.07
2017-08-17T21:19:25.800Z,1011.1
2017-08-17T21:20:36.026Z,1011.15
2017-08-17T21:21:45.655Z,1011.09
2017-08-17T21:22:55.744Z,1011.11
2017-08-17T21:24:05.989Z,1011.11
2017-08-17T21:25:15.601Z,1011.06
2017-08-17T21:26:25.217Z,1011.07
2017-08-17T21:27:35.180Z,1011.03
2017-08-17T21:28:45.462Z,1011.02
2017-08-17T21:29:55.383Z,1010.95
2017-08-17T21:31:05.294Z,1010.92
2017-08-17T21:32:15.230Z,1010.86
2017-08-17T21:33:24.678Z,1010.8
2017-08-17T21:34:35.057Z,1010.79
2017-08-17T21:35:44.714Z,1010.78
2017-08-17T21:36:54.334Z,1010.79
2017-08-17T21:38:04.587Z,1010.84
2017-08-17T21:39:14.505Z,1010.81
2017-08-17T21:40:23.916Z,1010.87
2017-08-17T21:41:33.906Z,1010.85
2017-08-17T21:42:43.538Z,1010.9
2017-08-17T21:43:53.486Z,1010.93
2017-08-17T21:45:03.473Z,1010.94
2017-08-17T21:46:13.852Z,1010.92
2017-08-17T21:47:24.077Z,1010.93
2017-08-17T21:48:34.565Z,1010.95
2017-08-17T21:49:44.781Z,1010.89
2017-08-17T21:50:55.026Z,1010.86
2017-08-17T21:52:05.005Z,1010.91
2017-08-17T21:53:14.310Z,1010.92
2017-08-17T21:54:24.559Z,1010.87
2017-08-17T21:55:34.494Z,1010.84
2017-08-17T21:56:43.812Z,1010.88
2017-08-17T21:57:54.395Z,1010.88
2017-08-17T21:59:04.633Z,1010.91
2017-08-17T22:00:14.631Z,1010.92
2017-08-17T22:01:24.248Z,1010.86
2017-08-17T22:02:33.256Z,1010.86
2017-08-17T22:03:43.537Z,1010.87
2017-08-17T22:04:53.757Z,1010.84
2017-08-17T22:06:03.075Z,1010.86
2017-08-17T22:07:12.688Z,1010.85
2017-08-17T22:08:22.322Z,1010.83
2017-08-17T22:09:32.595Z,1010.83
2017-08-17T22:10:42.524Z,1010.81
2017-08-17T22:11:52.436Z,1010.78
2017-08-17T22:13:02.373Z,1010.8
2017-08-17T22:14:11.689Z,1010.78
2017-08-17T22:15:21.660Z,1010.85
2017-08-17T22:16:31.287Z,1010.81
2017-08-17T22:17:40.891Z,1010.86
2017-08-17T22:18:50.500Z,1010.86
2017-08-17T22:20:00.424Z,1010.9
2017-08-17T22:21:10.839Z,1010.9
2017-08-17T22:22:20.752Z,1010.93
2017-08-17T22:23:30.978Z,1010.96
2017-08-17T22:24:41.226Z,1010.95
2017-08-17T22:25:51.162Z,1010.89
2017-08-17T22:27:01.240Z,1010.9
2017-08-17T22:28:11.167Z,1010.89
2017-08-17T22:29:21.100Z,1010.91
2017-08-17T22:30:31.008Z,1010.89
2017-08-17T22:31:40.980Z,1010.86
2017-08-17T22:32:51.066Z,1010.82
2017-08-17T22:34:01.291Z,1010.77
2017-08-17T22:35:11.219Z,1010.81
2017-08-17T22:36:21.123Z,1010.8
2017-08-17T22:37:30.746Z,1010.77
2017-08-17T22:38:40.357Z,1010.77
2017-08-17T22:39:50.605Z,1010.76
2017-08-17T22:41:00.528Z,1010.78
2017-08-17T22:42:10.156Z,1010.73
2017-08-17T22:43:20.077Z,1010.78
2017-08-17T22:44:30.467Z,1010.78
2017-08-17T22:45:40.909Z,1010.82
2017-08-17T22:46:50.547Z,1010.85
2017-08-17T22:48:01.180Z,1010.87
2017-08-17T22:49:10.803Z,1010.81
2017-08-17T22:50:20.773Z,1010.84
2017-08-17T22:51:30.999Z,1010.86
2017-08-17T22:52:41.223Z,1010.85
2017-08-17T22:53:51.146Z,1010.86
2017-08-17T22:55:01.377Z,1010.86
2017-08-17T22:56:11.628Z,1010.86
2017-08-17T22:57:21.865Z,1010.85
2017-08-17T22:58:32.117Z,1010.8
2017-08-17T22:59:42.386Z,1010.74
2017-08-17T23:00:52.317Z,1010.74
2017-08-17T23:02:02.702Z,1010.77
2017-08-17T23:03:12.345Z,1010.72
2017-08-17T23:04:22.291Z,1010.71
2017-08-17T23:05:32.267Z,1010.74
2017-08-17T23:06:41.606Z,1010.74
2017-08-17T23:07:51.274Z,1010.74
2017-08-17T23:09:01.203Z,1010.74
2017-08-17T23:10:11.141Z,1010.65
2017-08-17T23:11:20.764Z,1010.65
2017-08-17T23:12:30.690Z,1010.69
2017-08-17T23:13:40.171Z,1010.62
2017-08-17T23:14:49.874Z,1010.62
2017-08-17T23:15:59.848Z,1010.59
2017-08-17T23:17:09.495Z,1010.58
2017-08-17T23:18:19.103Z,1010.61
2017-08-17T23:19:29.703Z,1010.58
2017-08-17T23:20:39.967Z,1010.67
2017-08-17T23:21:50.207Z,1010.7
2017-08-17T23:23:00.480Z,1010.74
2017-08-17T23:24:10.408Z,1010.73
2017-08-17T23:25:20.027Z,1010.73
2017-08-17T23:26:29.660Z,1010.67
2017-08-17T23:27:39.584Z,1010.65
2017-08-17T23:28:49.525Z,1010.6
2017-08-17T23:29:59.475Z,1010.55
2017-08-17T23:31:09.234Z,1010.58
2017-08-17T23:32:19.155Z,1010.6
2017-08-17T23:33:28.777Z,1010.58
2017-08-17T23:34:38.394Z,1010.6
2017-08-17T23:35:48.324Z,1010.62
2017-08-17T23:36:58.345Z,1010.63
2017-08-17T23:38:07.646Z,1010.57
2017-08-17T23:39:17.563Z,1010.64
2017-08-17T23:40:27.505Z,1010.66
2017-08-17T23:41:37.154Z,1010.65
2017-08-17T23:42:47.412Z,1010.68
2017-08-17T23:43:57.328Z,1010.65
2017-08-17T23:45:06.959Z,1010.64
2017-08-17T23:46:16.561Z,1010.63
2017-08-17T23:47:26.186Z,1010.59
2017-08-17T23:48:36.441Z,1010.59
2017-08-17T23:49:46.350Z,1010.56
2017-08-17T23:50:55.961Z,1010.56
2017-08-17T23:52:06.180Z,1010.54
2017-08-17T23:53:15.483Z,1010.57
2017-08-17T23:54:25.497Z,1010.56
2017-08-17T23:55:34.825Z,1010.52
2017-08-17T23:56:44.744Z,1010.55
2017-08-17T23:57:54.672Z,1010.57
2017-08-17T23:59:04.913Z,1010.56
